Time;durP1;ratioP1;P1;durP2;ratioP2;P2;SDS_P1;SDS_P2;PMS_P1;PMS_P2;Temp;Humidity;BMP_temperature;BMP_pressure;BME280_temperature;BME280_humidity;BME280_pressure;Samples;Min_cycle;Max_cycle;Signal;HPM_P1;HPM_P2
2022/07/25 00:01:09;;;;;;;;;;;;;;;25.92;44.35;100391.28;2107588;28;19955;-86
2022/07/25 00:02:33;;;;;;;;;;;;;;;25.89;44.54;100398.69;2104445;28;19924;-86
2022/07/25 00:03:55;;;;;;;;;;;;;;;25.86;44.55;100391.63;2104415;28;20022;-87
2022/07/25 00:05:16;;;;;;;;;;;;;;;25.83;44.46;100389.06;2102029;28;19974;-86
2022/07/25 00:06:38;;;;;;;;;;;;;;;25.79;44.49;100401.03;2110858;28;19928;-82
2022/07/25 00:08:00;;;;;;;;;;;;;;;25.76;44.55;100391.22;2097278;28;19924;-82
2022/07/25 00:09:22;;;;;;;;;;;;;;;25.75;44.79;100391.28;2098267;28;20322;-80
2022/07/25 00:10:44;;;;;;;;;;;;;;;25.77;44.56;100386.69;2104035;28;19925;-81
2022/07/25 00:12:05;;;;;;;;;;;;;;;25.78;44.65;100392.03;2098859;28;20625;-83
2022/07/25 00:13:27;;;;;;;;;;;;;;;25.80;44.67;100384.69;2104130;28;20500;-82
2022/07/25 00:14:50;;;;;;;;;;;;;;;25.81;44.36;100385.56;2094461;28;20389;-83
2022/07/25 00:16:11;;;;;;;;;;;;;;;25.80;44.67;100389.22;2097762;28;19933;-82
2022/07/25 00:17:34;;;;;;;;;;;;;;;25.75;44.84;100381.34;2097047;28;19971;-82
2022/07/25 00:18:56;;;;;;;;;;;;;;;25.71;45.01;100392.44;2096154;28;20023;-83
2022/07/25 00:20:18;;;;;;;;;;;;;;;25.68;45.17;100387.16;2096300;28;19940;-83
2022/07/25 00:21:40;;;;;;;;;;;;;;;25.67;45.00;100382.72;2095680;28;20023;-83
2022/07/25 00:23:02;;;;;;;;;;;;;;;25.68;45.15;100385.34;2104221;28;19931;-83
2022/07/25 00:24:23;;;;;;;;;;;;;;;25.70;44.96;100390.69;2096891;28;19956;-83
2022/07/25 00:25:45;;;;;;;;;;;;;;;25.72;45.17;100395.06;2096318;28;19982;-83
2022/07/25 00:27:06;;;;;;;;;;;;;;;25.73;44.76;100391.38;2096130;28;19974;-84
2022/07/25 00:28:29;;;;;;;;;;;;;;;25.68;45.05;100397.97;2087617;28;19924;-84
2022/07/25 00:29:51;;;;;;;;;;;;;;;25.61;44.94;100385.75;2097303;28;19952;-83
2022/07/25 00:31:13;;;;;;;;;;;;;;;25.56;45.00;100388.66;2099432;28;19924;-82
2022/07/25 00:32:35;;;;;;;;;;;;;;;25.51;45.38;100384.44;2095812;28;20385;-83
2022/07/25 00:33:57;;;;;;;;;;;;;;;25.44;45.25;100383.00;2110272;28;19932;-81
2022/07/25 00:35:18;;;;;;;;;;;;;;;25.38;45.29;100385.09;2099806;28;20431;-82
2022/07/25 00:36:41;;;;;;;;;;;;;;;25.33;45.50;100387.16;2097853;28;20070;-81
2022/07/25 00:38:03;;;;;;;;;;;;;;;25.31;45.59;100383.66;2103979;28;19928;-82
2022/07/25 00:39:24;;;;;;;;;;;;;;;25.31;45.65;100377.38;2090698;28;19924;-82
2022/07/25 00:40:46;;;;;;;;;;;;;;;25.25;45.88;100383.97;2104042;28;20433;-82
2022/07/25 00:42:08;;;;;;;;;;;;;;;25.26;45.77;100379.44;2103921;28;19973;-81
2022/07/25 00:43:30;;;;;;;;;;;;;;;25.27;45.91;100375.78;2101163;28;20022;-81
2022/07/25 00:44:51;;;;;;;;;;;;;;;25.25;45.78;100375.00;2093757;28;19932;-82
2022/07/25 00:46:13;;;;;;;;;;;;;;;25.28;45.80;100372.09;2095298;28;19929;-82
2022/07/25 00:47:37;;;;;;;;;;;;;;;25.30;45.80;100372.91;2100570;28;19924;-81
2022/07/25 00:48:59;;;;;;;;;;;;;;;25.30;45.76;100378.31;2092911;28;19925;-82
2022/07/25 00:50:20;;;;;;;;;;;;;;;25.27;45.93;100375.78;2095582;28;19925;-82
2022/07/25 00:51:42;;;;;;;;;;;;;;;25.23;46.04;100366.94;2094930;28;19931;-82
2022/07/25 00:53:04;;;;;;;;;;;;;;;25.22;46.03;100377.81;2094322;28;19963;-83
2022/07/25 00:54:27;;;;;;;;;;;;;;;25.19;46.12;100376.19;2099387;28;19924;-83
2022/07/25 00:55:48;;;;;;;;;;;;;;;25.18;45.92;100377.13;2095813;28;19925;-82
2022/07/25 00:57:10;;;;;;;;;;;;;;;25.14;46.24;100380.06;2092416;28;19924;-83
2022/07/25 00:58:31;;;;;;;;;;;;;;;25.07;46.30;100373.22;2093674;28;19935;-83
2022/07/25 00:59:53;;;;;;;;;;;;;;;25.04;46.33;100374.25;2103881;28;19931;-82
2022/07/25 01:01:16;;;;;;;;;;;;;;;25.03;46.42;100383.28;2102143;28;19946;-83
2022/07/25 01:02:40;;;;;;;;;;;;;;;25.04;46.38;100378.75;2118869;28;20019;-83
2022/07/25 01:04:01;;;;;;;;;;;;;;;25.04;46.15;100373.38;2093066;28;19978;-82
2022/07/25 01:05:23;;;;;;;;;;;;;;;25.02;46.09;100378.84;2087269;28;19925;-81
2022/07/25 01:06:44;;;;;;;;;;;;;;;25.00;46.17;100380.75;2087430;28;20039;-83
2022/07/25 01:08:06;;;;;;;;;;;;;;;24.94;46.30;100372.97;2093949;28;20034;-82
2022/07/25 01:09:27;;;;;;;;;;;;;;;24.90;46.71;100376.75;2093742;28;19950;-82
2022/07/25 01:10:49;;;;;;;;;;;;;;;24.88;46.82;100375.91;2095595;28;19931;-82
2022/07/25 01:12:10;;;;;;;;;;;;;;;24.88;46.70;100378.59;2098339;28;20352;-83
2022/07/25 01:13:33;;;;;;;;;;;;;;;24.86;46.71;100373.31;2087087;28;19964;-81
2022/07/25 01:14:55;;;;;;;;;;;;;;;24.88;46.90;100370.50;2098965;28;19973;-81
2022/07/25 01:16:17;;;;;;;;;;;;;;;24.90;46.62;100374.03;2103884;28;19932;-82
2022/07/25 01:17:40;;;;;;;;;;;;;;;24.92;46.84;100375.75;2100765;28;19969;-81
2022/07/25 01:19:02;;;;;;;;;;;;;;;24.91;46.67;100376.69;2093142;28;20008;-81
2022/07/25 01:20:25;;;;;;;;;;;;;;;24.89;46.88;100369.56;2094147;28;19924;-81
2022/07/25 01:21:47;;;;;;;;;;;;;;;24.85;46.75;100374.25;2115831;27;19998;-81
2022/07/25 01:23:08;;;;;;;;;;;;;;;24.82;46.86;100373.50;2109234;28;19924;-83
2022/07/25 01:24:30;;;;;;;;;;;;;;;24.80;47.09;100370.03;2103720;28;20395;-83
2022/07/25 01:25:53;;;;;;;;;;;;;;;24.80;46.84;100367.34;2095213;28;20081;-83
2022/07/25 01:27:15;;;;;;;;;;;;;;;24.81;46.97;100358.28;2099709;28;20030;-84
2022/07/25 01:28:37;;;;;;;;;;;;;;;24.82;47.03;100366.28;2093371;28;19925;-84
2022/07/25 01:29:59;;;;;;;;;;;;;;;24.83;47.13;100361.75;2097976;28;19932;-84
2022/07/25 01:31:21;;;;;;;;;;;;;;;24.84;47.24;100364.41;2089695;28;20165;-82
2022/07/25 01:32:44;;;;;;;;;;;;;;;24.83;47.07;100361.75;2101072;28;20003;-84
2022/07/25 01:34:06;;;;;;;;;;;;;;;24.83;47.09;100359.94;2090833;28;19980;-84
2022/07/25 01:35:29;;;;;;;;;;;;;;;24.81;47.11;100356.44;2092263;28;19932;-83
2022/07/25 01:36:52;;;;;;;;;;;;;;;24.76;47.26;100363.00;2089686;28;20394;-84
2022/07/25 01:38:13;;;;;;;;;;;;;;;24.74;47.39;100360.41;2093847;28;19939;-84
2022/07/25 01:39:35;;;;;;;;;;;;;;;24.71;47.30;100359.66;2100631;28;19924;-83
2022/07/25 01:40:57;;;;;;;;;;;;;;;24.72;47.05;100351.50;2097826;28;19931;-83
2022/07/25 01:42:19;;;;;;;;;;;;;;;24.75;46.95;100351.34;2098204;28;20376;-83
2022/07/25 01:43:41;;;;;;;;;;;;;;;24.75;47.01;100354.03;2095430;28;20400;-83
2022/07/25 01:45:03;;;;;;;;;;;;;;;24.74;47.02;100356.84;2092893;28;20022;-83
2022/07/25 01:46:25;;;;;;;;;;;;;;;24.74;46.98;100354.13;2103664;28;19924;-83
2022/07/25 01:47:47;;;;;;;;;;;;;;;24.73;47.04;100350.56;2096916;28;20503;-83
2022/07/25 01:49:08;;;;;;;;;;;;;;;24.74;47.00;100349.63;2100212;28;19974;-83
2022/07/25 01:50:32;;;;;;;;;;;;;;;24.74;47.15;100343.34;2088997;28;19924;-84
2022/07/25 01:51:54;;;;;;;;;;;;;;;24.74;47.03;100348.75;2092756;28;19924;-85
2022/07/25 01:53:16;;;;;;;;;;;;;;;24.76;47.27;100344.13;2095063;28;19963;-84
2022/07/25 01:54:37;;;;;;;;;;;;;;;24.78;47.20;100344.91;2095417;28;19974;-85
2022/07/25 01:56:00;;;;;;;;;;;;;;;24.78;47.21;100345.81;2086759;28;19935;-83
2022/07/25 01:57:21;;;;;;;;;;;;;;;24.79;47.17;100346.69;2099817;28;19924;-82
2022/07/25 01:58:43;;;;;;;;;;;;;;;24.81;47.19;100344.78;2095775;28;19951;-82
2022/07/25 02:00:10;;;;;;;;;;;;;;;24.81;47.41;100348.34;2095205;28;20377;-81
2022/07/25 02:01:36;;;;;;;;;;;;;;;24.80;47.62;100345.72;2095511;28;20368;-82
2022/07/25 02:04:37;;;;;;;;;;;;;;;24.80;47.59;100352.00;2089255;28;19931;-83
2022/07/25 02:06:01;;;;;;;;;;;;;;;24.76;47.48;100349.50;2078540;28;19979;-82
2022/07/25 02:07:23;;;;;;;;;;;;;;;24.71;47.67;100354.28;2092100;28;19961;-82
2022/07/25 02:08:45;;;;;;;;;;;;;;;24.66;47.75;100345.53;2101866;28;19951;-83
2022/07/25 02:10:06;;;;;;;;;;;;;;;24.62;47.83;100350.19;2097401;28;20388;-82
2022/07/25 02:11:28;;;;;;;;;;;;;;;24.60;47.74;100349.41;2095071;28;19928;-82
2022/07/25 02:12:49;;;;;;;;;;;;;;;24.59;48.06;100347.66;2086961;28;19925;-83
2022/07/25 02:14:11;;;;;;;;;;;;;;;24.59;48.09;100355.75;2102372;28;19978;-83
2022/07/25 02:15:33;;;;;;;;;;;;;;;24.59;47.90;100345.84;2097943;28;19924;-83
2022/07/25 02:16:55;;;;;;;;;;;;;;;24.67;47.88;100347.28;2102174;28;19975;-83
2022/07/25 02:18:17;;;;;;;;;;;;;;;24.81;47.78;100350.19;2094626;28;19968;-83
2022/07/25 02:19:39;;;;;;;;;;;;;;;24.94;47.64;100351.34;2084697;28;19956;-83
2022/07/25 02:21:05;;;;;;;;;;;;;;;24.98;47.54;100350.25;2087052;28;19932;-83
2022/07/25 02:22:26;;;;;;;;;;;;;;;24.99;47.28;100341.19;2096241;28;19928;-83
2022/07/25 02:23:49;;;;;;;;;;;;;;;24.99;47.22;100341.19;2101929;28;19974;-83
2022/07/25 02:25:10;;;;;;;;;;;;;;;24.95;47.43;100343.16;2094137;28;20055;-84
2022/07/25 02:26:32;;;;;;;;;;;;;;;24.93;47.52;100341.50;2091004;28;20401;-83
2022/07/25 02:27:53;;;;;;;;;;;;;;;24.91;47.88;100338.00;2095057;28;19928;-84
2022/07/25 02:29:15;;;;;;;;;;;;;;;24.90;47.67;100344.34;2086458;28;19932;-83
2022/07/25 02:30:36;;;;;;;;;;;;;;;24.87;47.89;100342.66;2100391;28;19924;-84
2022/07/25 02:31:58;;;;;;;;;;;;;;;24.86;47.74;100345.44;2089242;28;19998;-83
2022/07/25 02:33:20;;;;;;;;;;;;;;;24.85;47.97;100340.97;2104114;28;19950;-83
2022/07/25 02:34:42;;;;;;;;;;;;;;;24.90;47.64;100344.34;2103152;28;19928;-83
2022/07/25 02:36:06;;;;;;;;;;;;;;;24.92;47.88;100348.72;2095552;28;19925;-83
2022/07/25 02:37:27;;;;;;;;;;;;;;;24.90;47.70;100345.22;2093099;28;19932;-83
2022/07/25 02:38:49;;;;;;;;;;;;;;;24.94;47.68;100345.97;2102919;28;19924;-84
2022/07/25 02:40:12;;;;;;;;;;;;;;;25.00;47.71;100343.81;2097926;28;19932;-83
2022/07/25 02:41:34;;;;;;;;;;;;;;;25.00;47.80;100348.34;2101521;28;19928;-83
2022/07/25 02:42:56;;;;;;;;;;;;;;;24.94;47.82;100335.16;2099863;28;19933;-85
2022/07/25 02:44:18;;;;;;;;;;;;;;;24.91;47.79;100335.28;2094729;28;19968;-84
2022/07/25 02:45:40;;;;;;;;;;;;;;;24.87;48.07;100334.56;2089918;28;19928;-83
2022/07/25 02:47:02;;;;;;;;;;;;;;;24.83;47.96;100341.03;2094131;28;20316;-83
2022/07/25 02:48:24;;;;;;;;;;;;;;;24.80;48.10;100334.94;2095503;28;19927;-83
2022/07/25 02:49:46;;;;;;;;;;;;;;;24.76;48.23;100338.72;2103269;28;19971;-83
2022/07/25 02:51:08;;;;;;;;;;;;;;;24.73;48.40;100337.06;2097766;28;19928;-83
2022/07/25 02:52:30;;;;;;;;;;;;;;;24.74;48.32;100343.34;2084114;28;19970;-84
2022/07/25 02:53:52;;;;;;;;;;;;;;;24.75;48.16;100339.66;2091995;28;19932;-85
2022/07/25 02:55:13;;;;;;;;;;;;;;;24.78;48.12;100339.53;2094850;28;19963;-85
2022/07/25 02:56:35;;;;;;;;;;;;;;;24.81;48.06;100342.09;2086104;28;19925;-84
2022/07/25 02:57:56;;;;;;;;;;;;;;;24.80;48.13;100338.50;2097628;28;19960;-84
2022/07/25 02:59:18;;;;;;;;;;;;;;;24.78;48.32;100342.22;2096419;28;19928;-84
2022/07/25 03:00:39;;;;;;;;;;;;;;;24.79;48.39;100346.69;2094849;28;19928;-84
2022/07/25 03:02:01;;;;;;;;;;;;;;;24.78;48.37;100339.53;2094830;28;19935;-84
2022/07/25 03:03:23;;;;;;;;;;;;;;;24.78;48.15;100353.91;2097424;28;19931;-84
2022/07/25 03:04:44;;;;;;;;;;;;;;;24.77;48.27;100344.03;2103267;28;19935;-85
2022/07/25 03:06:07;;;;;;;;;;;;;;;24.79;48.32;100352.06;2089947;28;19925;-85
2022/07/25 03:07:30;;;;;;;;;;;;;;;24.83;48.32;100353.66;2089178;28;19932;-87
2022/07/25 03:08:52;;;;;;;;;;;;;;;24.89;48.56;100347.94;2092782;28;19932;-85
2022/07/25 03:10:15;;;;;;;;;;;;;;;24.91;48.66;100346.09;2095213;28;20027;-84
2022/07/25 03:11:36;;;;;;;;;;;;;;;24.99;48.24;100339.38;2100688;28;19924;-85
2022/07/25 03:12:58;;;;;;;;;;;;;;;25.02;48.21;100335.63;2102507;28;19928;-86
2022/07/25 03:14:20;;;;;;;;;;;;;;;25.04;48.13;100343.66;2103252;28;19924;-85
2022/07/25 03:15:42;;;;;;;;;;;;;;;25.05;48.03;100348.97;2103277;28;19980;-85
2022/07/25 03:17:04;;;;;;;;;;;;;;;25.05;48.19;100343.56;2118312;28;20470;-88
2022/07/25 03:18:25;;;;;;;;;;;;;;;25.10;47.96;100346.91;2096698;28;20357;-89
2022/07/25 03:19:47;;;;;;;;;;;;;;;25.13;48.06;100338.66;2093351;28;20053;-87
2022/07/25 03:21:09;;;;;;;;;;;;;;;25.15;48.05;100346.66;2094555;28;19975;-83
2022/07/25 03:22:33;;;;;;;;;;;;;;;25.13;48.21;100340.50;2089346;28;20039;-83
2022/07/25 03:23:54;;;;;;;;;;;;;;;25.09;48.02;100339.75;2086690;28;20507;-84
2022/07/25 03:25:16;;;;;;;;;;;;;;;25.07;48.32;100346.22;2097306;28;19935;-83
2022/07/25 03:26:37;;;;;;;;;;;;;;;25.05;48.32;100354.38;2080997;28;19936;-84
2022/07/25 03:27:59;;;;;;;;;;;;;;;25.00;48.45;100351.91;2094277;28;19928;-83
2022/07/25 03:29:20;;;;;;;;;;;;;;;24.97;48.55;100345.78;2095843;28;19971;-83
2022/07/25 03:30:43;;;;;;;;;;;;;;;24.95;48.53;100344.97;2086249;28;19940;-83
2022/07/25 03:32:04;;;;;;;;;;;;;;;24.93;48.58;100349.59;2104073;28;19998;-83
2022/07/25 03:33:26;;;;;;;;;;;;;;;24.93;48.61;100349.59;2093152;28;19925;-84
2022/07/25 03:34:47;;;;;;;;;;;;;;;24.97;48.69;100348.47;2087855;28;19968;-83
2022/07/25 03:36:10;;;;;;;;;;;;;;;25.02;48.60;100351.81;2087710;28;19925;-83
2022/07/25 03:37:34;;;;;;;;;;;;;;;25.10;48.41;100346.03;2096345;28;20015;-83
2022/07/25 03:38:55;;;;;;;;;;;;;;;25.22;48.46;100348.97;2110436;28;20007;-83
2022/07/25 03:40:17;;;;;;;;;;;;;;;25.34;48.14;100348.34;2088211;28;19925;-83
2022/07/25 03:41:38;;;;;;;;;;;;;;;25.41;47.98;100347.06;2094938;28;19935;-83
2022/07/25 03:43:00;;;;;;;;;;;;;;;25.49;47.84;100343.97;2097671;28;19924;-84
2022/07/25 03:44:23;;;;;;;;;;;;;;;25.54;48.00;100343.72;2096700;28;20372;-85
2022/07/25 03:45:44;;;;;;;;;;;;;;;25.60;48.21;100351.56;2104721;28;19948;-85
2022/07/25 03:47:06;;;;;;;;;;;;;;;25.67;48.13;100355.66;2096108;28;19928;-85
2022/07/25 03:48:27;;;;;;;;;;;;;;;25.74;48.06;100347.16;2088889;28;20548;-84
2022/07/25 03:49:49;;;;;;;;;;;;;;;25.82;47.66;100352.16;2091381;28;19963;-84
2022/07/25 03:51:11;;;;;;;;;;;;;;;25.91;47.83;100337.25;2095580;28;19925;-83
2022/07/25 03:52:37;;;;;;;;;;;;;;;26.01;47.35;100350.19;2095932;28;19931;-80
2022/07/25 03:54:02;;;;;;;;;;;;;;;26.10;47.34;100347.00;2096201;28;19928;-80
2022/07/25 03:55:24;;;;;;;;;;;;;;;26.20;47.15;100347.34;2104911;28;19952;-83
2022/07/25 03:56:46;;;;;;;;;;;;;;;26.27;47.19;100350.63;2097920;28;19955;-84
2022/07/25 03:58:08;;;;;;;;;;;;;;;26.33;46.96;100352.97;2092073;28;19924;-84
2022/07/25 03:59:30;;;;;;;;;;;;;;;26.42;47.04;100347.06;2095954;28;20400;-84
2022/07/25 04:00:52;;;;;;;;;;;;;;;26.51;47.07;100351.97;2095712;28;19925;-84
2022/07/25 04:02:14;;;;;;;;;;;;;;;26.57;46.98;100344.38;2112984;28;20459;-85
2022/07/25 04:03:36;;;;;;;;;;;;;;;26.66;46.66;100351.06;2099907;28;19931;-85
2022/07/25 04:04:59;;;;;;;;;;;;;;;26.74;46.84;100354.22;2099374;28;20544;-82
2022/07/25 04:06:22;;;;;;;;;;;;;;;26.84;46.71;100358.16;2098679;28;20416;-84
2022/07/25 04:07:45;;;;;;;;;;;;;;;26.95;46.36;100349.41;2098505;28;19963;-83
2022/07/25 04:09:08;;;;;;;;;;;;;;;27.07;46.39;100348.69;2098501;28;20015;-84
2022/07/25 04:10:30;;;;;;;;;;;;;;;27.19;46.13;100345.25;2095916;28;19929;-81
2022/07/25 04:11:52;;;;;;;;;;;;;;;27.28;45.97;100351.97;2095050;28;19987;-81
2022/07/25 04:13:14;;;;;;;;;;;;;;;27.38;45.78;100351.31;2085200;28;19933;-81
2022/07/25 04:14:36;;;;;;;;;;;;;;;27.49;45.47;100353.41;2089611;28;20047;-82
2022/07/25 04:15:58;;;;;;;;;;;;;;;27.62;45.38;100354.41;2111678;28;19924;-81
2022/07/25 04:17:20;;;;;;;;;;;;;;;27.74;45.37;100353.66;2100749;28;19929;-79
2022/07/25 04:18:42;;;;;;;;;;;;;;;27.86;45.20;100357.44;2087261;28;19929;-79
2022/07/25 04:20:05;;;;;;;;;;;;;;;27.97;45.13;100359.47;2084646;28;20020;-80
2022/07/25 04:21:28;;;;;;;;;;;;;;;28.08;44.92;100356.97;2098270;28;20031;-79
2022/07/25 04:22:51;;;;;;;;;;;;;;;28.20;44.84;100361.66;2090344;28;20031;-81
2022/07/25 04:24:13;;;;;;;;;;;;;;;28.32;44.94;100360.88;2109912;28;19966;-78
2022/07/25 04:25:36;;;;;;;;;;;;;;;28.46;44.68;100355.41;2099150;28;19975;-80
2022/07/25 04:26:58;;;;;;;;;;;;;;;28.62;44.58;100359.88;2090350;28;20511;-80
2022/07/25 04:28:20;;;;;;;;;;;;;;;28.77;44.42;100357.03;2102482;28;19955;-80
2022/07/25 04:29:42;;;;;;;;;;;;;;;28.91;43.90;100359.69;2096485;28;19964;-81
2022/07/25 04:31:04;;;;;;;;;;;;;;;29.05;43.68;100356.06;2120029;27;19931;-81
2022/07/25 04:32:27;;;;;;;;;;;;;;;29.21;43.60;100358.63;2108531;28;19931;-80
2022/07/25 04:33:49;;;;;;;;;;;;;;;29.35;43.70;100366.72;2097345;28;20651;-80
2022/07/25 04:35:11;;;;;;;;;;;;;;;29.50;43.02;100356.63;2092123;28;19929;-81
2022/07/25 04:36:33;;;;;;;;;;;;;;;29.61;43.27;100360.34;2086504;28;19924;-81
2022/07/25 04:37:56;;;;;;;;;;;;;;;29.75;43.20;100362.09;2100592;28;19956;-81
2022/07/25 04:39:18;;;;;;;;;;;;;;;29.88;42.82;100356.66;2096129;28;19924;-81
2022/07/25 04:40:41;;;;;;;;;;;;;;;30.00;42.27;100361.25;2096093;28;19974;-81
2022/07/25 04:42:03;;;;;;;;;;;;;;;30.13;42.20;100356.66;2095706;28;19928;-81
2022/07/25 04:43:25;;;;;;;;;;;;;;;30.25;41.39;100354.94;2095595;28;20002;-81
2022/07/25 04:44:47;;;;;;;;;;;;;;;30.38;41.68;100363.97;2086817;28;19935;-80
2022/07/25 04:46:09;;;;;;;;;;;;;;;30.55;41.68;100362.75;2095575;28;19925;-81
2022/07/25 04:47:30;;;;;;;;;;;;;;;30.72;40.66;100368.69;2090096;28;19925;-81
2022/07/25 04:48:52;;;;;;;;;;;;;;;30.88;40.76;100377.47;2107776;27;19932;-81
2022/07/25 04:50:14;;;;;;;;;;;;;;;31.03;40.47;100375.44;2095107;28;20331;-81
2022/07/25 04:51:36;;;;;;;;;;;;;;;31.14;40.20;100380.97;2097441;28;19928;-81
2022/07/25 04:52:59;;;;;;;;;;;;;;;31.26;39.53;100373.72;2089328;28;19928;-81
2022/07/25 04:54:21;;;;;;;;;;;;;;;31.37;39.69;100383.81;2092781;28;19924;-81
2022/07/25 04:55:42;;;;;;;;;;;;;;;31.54;39.57;100376.06;2097875;28;20409;-81
2022/07/25 04:57:04;;;;;;;;;;;;;;;31.73;38.92;100372.78;2095783;28;19962;-81
2022/07/25 04:58:25;;;;;;;;;;;;;;;31.87;38.87;100380.78;2100064;28;19924;-81
2022/07/25 04:59:47;;;;;;;;;;;;;;;32.05;38.58;100371.09;2097982;28;20388;-81
2022/07/25 05:01:09;;;;;;;;;;;;;;;32.27;38.44;100380.34;2090101;28;19963;-82
2022/07/25 05:02:31;;;;;;;;;;;;;;;32.44;38.26;100377.97;2088754;28;19929;-81
2022/07/25 05:03:53;;;;;;;;;;;;;;;32.64;37.63;100381.81;2091119;28;19924;-81
2022/07/25 05:05:15;;;;;;;;;;;;;;;32.81;36.89;100375.00;2104046;28;19924;-82
2022/07/25 05:06:36;;;;;;;;;;;;;;;32.91;37.22;100370.47;2092514;28;19949;-82
2022/07/25 05:08:00;;;;;;;;;;;;;;;33.06;36.67;100374.66;2087776;28;19931;-82
2022/07/25 05:09:22;;;;;;;;;;;;;;;33.21;36.81;100384.34;2091483;28;19948;-81
2022/07/25 05:10:44;;;;;;;;;;;;;;;33.44;35.57;100379.66;2101758;28;19935;-82
2022/07/25 05:12:06;;;;;;;;;;;;;;;33.59;36.04;100378.34;2096992;28;20078;-85
2022/07/25 05:13:28;;;;;;;;;;;;;;;33.82;35.74;100381.81;2097444;28;19925;-84
2022/07/25 05:14:49;;;;;;;;;;;;;;;34.04;35.42;100377.22;2103620;28;19935;-78
2022/07/25 05:16:11;;;;;;;;;;;;;;;34.23;35.56;100374.59;2097412;28;19925;-81
2022/07/25 05:17:32;;;;;;;;;;;;;;;34.42;34.91;100374.69;2103415;28;20015;-81
2022/07/25 05:18:54;;;;;;;;;;;;;;;34.56;34.70;100368.81;2096979;28;19983;-82
2022/07/25 05:20:15;;;;;;;;;;;;;;;34.69;34.13;100374.91;2087309;28;19931;-77
2022/07/25 05:21:38;;;;;;;;;;;;;;;34.82;34.42;100385.66;2090115;28;20007;-78
2022/07/25 05:23:01;;;;;;;;;;;;;;;34.99;33.99;100382.22;2091493;28;19924;-77
2022/07/25 05:24:22;;;;;;;;;;;;;;;35.07;34.03;100384.25;2095872;28;20486;-79
2022/07/25 05:25:44;;;;;;;;;;;;;;;35.19;33.71;100388.59;2087979;28;19956;-78
2022/07/25 05:27:06;;;;;;;;;;;;;;;35.35;33.66;100386.22;2099548;28;19928;-80
2022/07/25 05:28:28;;;;;;;;;;;;;;;35.52;32.85;100385.47;2097343;28;19932;-81
2022/07/25 05:29:50;;;;;;;;;;;;;;;35.64;33.31;100386.22;2088432;28;20008;-79
2022/07/25 05:31:12;;;;;;;;;;;;;;;35.77;33.22;100384.06;2091624;28;19973;-78
2022/07/25 05:32:35;;;;;;;;;;;;;;;35.84;33.01;100389.84;2098249;28;19989;-79
2022/07/25 05:33:57;;;;;;;;;;;;;;;35.97;32.96;100392.25;2092284;28;19925;-79
2022/07/25 05:35:19;;;;;;;;;;;;;;;36.13;32.57;100393.38;2080488;28;19925;-80
2022/07/25 05:36:41;;;;;;;;;;;;;;;36.28;32.18;100391.03;2098136;28;20495;-79
2022/07/25 05:38:05;;;;;;;;;;;;;;;36.42;32.27;100392.44;2096231;28;19928;-80
2022/07/25 05:39:27;;;;;;;;;;;;;;;36.55;31.80;100392.97;2109229;27;20399;-80
2022/07/25 05:40:50;;;;;;;;;;;;;;;36.56;31.88;100386.44;2092679;28;19942;-80
2022/07/25 05:42:12;;;;;;;;;;;;;;;36.64;31.74;100400.28;2090734;28;20015;-81
2022/07/25 05:43:35;;;;;;;;;;;;;;;36.72;31.31;100394.91;2107553;28;19923;-79
2022/07/25 05:44:56;;;;;;;;;;;;;;;36.72;31.31;100395.78;2091260;28;20023;-81
2022/07/25 05:46:18;;;;;;;;;;;;;;;36.83;31.37;100396.59;2098055;28;20446;-80
2022/07/25 05:47:40;;;;;;;;;;;;;;;36.89;30.63;100383.06;2080632;28;20008;-80
2022/07/25 05:49:01;;;;;;;;;;;;;;;36.94;30.98;100386.25;2090694;28;20417;-79
2022/07/25 05:50:23;;;;;;;;;;;;;;;37.03;30.94;100390.81;2110802;27;19923;-79
2022/07/25 05:51:46;;;;;;;;;;;;;;;37.17;29.75;100385.81;2101002;28;19932;-81
2022/07/25 05:53:09;;;;;;;;;;;;;;;37.16;30.26;100381.31;2088456;28;19967;-81
2022/07/25 05:54:31;;;;;;;;;;;;;;;37.25;30.27;100388.66;2097215;28;19998;-78
2022/07/25 05:55:53;;;;;;;;;;;;;;;37.35;30.34;100389.47;2095166;28;19931;-79
2022/07/25 05:57:15;;;;;;;;;;;;;;;37.50;29.60;100393.38;2095712;28;19928;-79
2022/07/25 05:58:39;;;;;;;;;;;;;;;37.55;29.70;100385.50;2096949;28;19989;-80
2022/07/25 06:00:01;;;;;;;;;;;;;;;37.54;29.02;100380.16;2099817;28;19935;-80
2022/07/25 06:01:26;;;;;;;;;;;;;;;37.54;29.36;100388.44;2101308;28;19928;-79
2022/07/25 06:02:48;;;;;;;;;;;;;;;37.63;28.91;100391.13;2088199;28;19925;-81
2022/07/25 06:04:10;;;;;;;;;;;;;;;37.76;29.23;100387.94;2114965;27;20343;-81
2022/07/25 06:05:32;;;;;;;;;;;;;;;37.88;28.82;100394.94;2092385;28;20356;-81
2022/07/25 06:06:54;;;;;;;;;;;;;;;37.88;28.67;100394.94;2098201;28;19925;-80
2022/07/25 06:08:18;;;;;;;;;;;;;;;37.96;28.41;100388.59;2100390;28;19974;-80
2022/07/25 06:09:40;;;;;;;;;;;;;;;37.98;28.69;100392.06;2115568;27;19928;-80
2022/07/25 06:11:03;;;;;;;;;;;;;;;37.98;28.22;100387.44;2096290;28;20411;-80
2022/07/25 06:12:25;;;;;;;;;;;;;;;37.96;27.93;100389.47;2094364;28;19932;-80
2022/07/25 06:13:46;;;;;;;;;;;;;;;38.00;28.06;100387.28;2094587;28;19928;-80
2022/07/25 06:15:09;;;;;;;;;;;;;;;37.90;28.18;100382.72;2095313;28;20140;-80
2022/07/25 06:16:31;;;;;;;;;;;;;;;37.94;28.18;100385.16;2086357;28;19937;-80
2022/07/25 06:17:53;;;;;;;;;;;;;;;37.92;28.02;100387.22;2103078;28;19924;-80
2022/07/25 06:19:15;;;;;;;;;;;;;;;37.88;27.90;100386.66;2091572;28;19925;-80
2022/07/25 06:20:37;;;;;;;;;;;;;;;37.80;27.25;100384.72;2102875;28;19971;-80
2022/07/25 06:21:59;;;;;;;;;;;;;;;37.69;27.74;100384.09;2091658;28;19987;-80
2022/07/25 06:23:23;;;;;;;;;;;;;;;37.59;27.73;100386.97;2085840;28;20377;-80
2022/07/25 06:24:45;;;;;;;;;;;;;;;37.57;28.16;100393.59;2102979;28;20618;-80
2022/07/25 06:26:08;;;;;;;;;;;;;;;37.61;27.63;100382.16;2107604;28;20399;-80
2022/07/25 06:27:30;;;;;;;;;;;;;;;37.59;27.85;100392.47;2102296;28;19924;-80
2022/07/25 06:28:51;;;;;;;;;;;;;;;37.67;27.92;100386.16;2094114;28;20023;-80
2022/07/25 06:30:14;;;;;;;;;;;;;;;37.66;27.78;100384.44;2091561;28;20037;-83
2022/07/25 06:31:36;;;;;;;;;;;;;;;37.68;27.38;100374.13;2085098;28;20413;-79
2022/07/25 06:32:58;;;;;;;;;;;;;;;37.71;27.59;100387.56;2084429;28;19928;-80
2022/07/25 06:34:20;;;;;;;;;;;;;;;37.76;27.21;100380.53;2084959;28;19931;-82
2022/07/25 06:35:41;;;;;;;;;;;;;;;37.77;27.23;100386.91;2110417;27;20407;-80
2022/07/25 06:37:03;;;;;;;;;;;;;;;37.62;27.61;100381.09;2098606;28;20377;-81
2022/07/25 06:38:26;;;;;;;;;;;;;;;37.61;27.73;100384.06;2099641;28;20304;-82
2022/07/25 06:39:48;;;;;;;;;;;;;;;37.69;27.71;100378.59;2105174;28;19932;-81
2022/07/25 06:41:13;;;;;;;;;;;;;;;37.72;27.39;100390.16;2104971;28;19928;-81
2022/07/25 06:42:38;;;;;;;;;;;;;;;37.68;27.32;100382.38;2105169;28;19924;-81
2022/07/25 06:44:00;;;;;;;;;;;;;;;37.63;27.53;100385.59;2102315;28;20268;-81
2022/07/25 06:45:22;;;;;;;;;;;;;;;37.56;27.13;100381.72;2117756;27;19927;-82
2022/07/25 06:46:43;;;;;;;;;;;;;;;37.47;27.58;100388.19;2108024;28;20005;-81
2022/07/25 06:48:06;;;;;;;;;;;;;;;37.41;27.69;100389.72;2111590;28;20356;-82
2022/07/25 06:49:28;;;;;;;;;;;;;;;37.41;27.67;100388.84;2088327;28;19971;-82
2022/07/25 06:50:51;;;;;;;;;;;;;;;37.48;27.50;100395.44;2103315;28;20461;-81
2022/07/25 06:52:13;;;;;;;;;;;;;;;37.55;27.64;100391.00;2099393;28;19928;-81
2022/07/25 06:53:36;;;;;;;;;;;;;;;37.56;27.00;100398.25;2110821;28;19924;-80
2022/07/25 06:54:59;;;;;;;;;;;;;;;37.53;27.40;100397.72;2099143;28;19925;-81
2022/07/25 06:56:21;;;;;;;;;;;;;;;37.56;27.52;100391.88;2102057;28;19958;-81
2022/07/25 06:57:42;;;;;;;;;;;;;;;37.54;27.55;100397.56;2095425;28;20539;-81
2022/07/25 06:59:04;;;;;;;;;;;;;;;37.51;27.01;100401.50;2084853;28;19924;-81
2022/07/25 07:00:26;;;;;;;;;;;;;;;37.41;27.14;100399.84;2099555;28;19967;-81
2022/07/25 07:01:47;;;;;;;;;;;;;;;37.39;27.36;100400.00;2088268;28;20415;-81
2022/07/25 07:03:09;;;;;;;;;;;;;;;37.50;27.18;100394.25;2093563;28;20383;-81